createdAt,value
2023-09-29T00:08:22.350Z,14.97
2023-09-29T00:12:11.402Z,14.92
2023-09-29T00:15:59.774Z,14.87
2023-09-29T00:19:49.019Z,14.80
2023-09-29T00:23:23.339Z,14.75
2023-09-29T00:42:42.963Z,14.65
2023-09-29T00:46:32.332Z,14.61
2023-09-29T00:50:22.055Z,14.59
2023-09-29T00:54:11.107Z,14.60
2023-09-29T00:58:27.063Z,14.62
2023-09-29T01:02:10.360Z,14.54
2023-09-29T01:06:00.668Z,14.48
2023-09-29T01:09:50.598Z,14.44
2023-09-29T01:25:28.640Z,14.41
2023-09-29T01:29:17.046Z,14.34
2023-09-29T01:33:06.405Z,14.37
2023-09-29T01:36:47.237Z,14.36
2023-09-29T01:40:36.578Z,14.36
2023-09-29T01:44:27.422Z,14.39
2023-09-29T02:03:55.287Z,14.10
2023-09-29T02:07:37.996Z,14.04
2023-09-29T02:11:29.534Z,14.04
2023-09-29T02:15:19.270Z,14.03
2023-09-29T02:34:28.871Z,13.99
2023-09-29T02:38:12.211Z,13.94
2023-09-29T02:42:02.010Z,13.95
2023-09-29T02:45:51.669Z,13.93
2023-09-29T03:05:18.623Z,13.77
2023-09-29T03:09:08.080Z,13.72
2023-09-29T03:12:58.523Z,13.68
2023-09-29T03:16:48.296Z,13.67
2023-09-29T03:20:38.948Z,13.65
2023-09-29T03:40:03.890Z,13.69
2023-09-29T03:43:53.211Z,13.63
2023-09-29T03:47:44.084Z,13.59
2023-09-29T04:03:02.681Z,13.49
2023-09-29T04:07:15.663Z,13.43
2023-09-29T04:11:07.387Z,13.41
2023-09-29T04:14:57.160Z,13.39
2023-09-29T04:34:21.764Z,13.26
2023-09-29T04:38:13.609Z,13.23
2023-09-29T04:42:02.915Z,13.23
2023-09-29T04:45:53.457Z,13.22
2023-09-29T05:08:35.319Z,13.21
2023-09-29T05:12:25.011Z,13.25
2023-09-29T05:16:14.305Z,13.30
2023-09-29T05:19:58.522Z,13.36
2023-09-29T05:42:50.884Z,13.94
2023-09-29T05:46:40.293Z,14.15
2023-09-29T05:50:29.895Z,14.77
2023-09-29T06:16:27.144Z,18.43
2023-09-29T06:19:49.610Z,18.68
2023-09-29T06:23:38.777Z,19.03
2023-09-29T06:27:01.388Z,19.29
2023-09-29T06:29:35.870Z,19.46
2023-09-29T06:32:11.943Z,19.54
2023-09-29T06:35:13.463Z,19.62
2023-09-29T06:37:47.468Z,19.84
2023-09-29T06:40:19.479Z,20.29
2023-09-29T06:42:57.027Z,20.55
2023-09-29T06:45:57.248Z,20.62
2023-09-29T06:48:32.379Z,20.77
2023-09-29T06:51:24.806Z,20.83
2023-09-29T06:54:03.951Z,20.66
2023-09-29T06:56:42.695Z,20.41
2023-09-29T06:59:12.343Z,20.44
2023-09-29T07:02:43.842Z,20.47
2023-09-29T07:05:47.610Z,20.54
2023-09-29T07:08:39.393Z,20.50
2023-09-29T07:11:11.040Z,20.38
2023-09-29T07:13:53.305Z,20.35
2023-09-29T07:16:30.130Z,20.33
2023-09-29T07:19:45.471Z,20.33
2023-09-29T07:22:42.035Z,20.30
2023-09-29T07:26:01.297Z,20.54
2023-09-29T07:28:42.099Z,20.56
2023-09-29T07:32:20.153Z,20.51
2023-09-29T07:35:14.033Z,20.51
2023-09-29T07:38:31.804Z,20.51
2023-09-29T07:41:03.104Z,20.54
2023-09-29T07:44:52.405Z,20.59
2023-09-29T07:47:48.791Z,20.64
2023-09-29T07:51:10.930Z,20.66
2023-09-29T07:54:01.974Z,20.73
2023-09-29T07:56:52.180Z,20.83
2023-09-29T07:59:46.154Z,20.96
2023-09-29T08:02:26.832Z,21.09
2023-09-29T08:05:36.404Z,21.20
2023-09-29T08:08:25.760Z,21.33
2023-09-29T08:11:02.348Z,21.53
2023-09-29T08:13:39.368Z,21.71
2023-09-29T08:16:36.280Z,21.83
2023-09-29T08:19:29.801Z,21.98
2023-09-29T08:22:39.921Z,22.15
2023-09-29T08:25:24.649Z,22.33
2023-09-29T08:28:33.885Z,22.51
2023-09-29T08:31:28.987Z,22.73
2023-09-29T08:34:11.447Z,22.98
2023-09-29T08:37:31.656Z,23.17
2023-09-29T08:40:38.362Z,23.37
2023-09-29T08:44:04.141Z,23.60
2023-09-29T08:47:01.697Z,23.83
2023-09-29T08:49:50.192Z,24.05
2023-09-29T08:53:19.973Z,24.26
2023-09-29T08:56:06.718Z,24.52
2023-09-29T08:58:55.686Z,24.75
2023-09-29T09:01:29.502Z,24.93
2023-09-29T09:04:01.818Z,25.05
2023-09-29T09:06:34.548Z,25.16
2023-09-29T09:09:26.287Z,25.32
2023-09-29T09:12:07.766Z,25.49
2023-09-29T09:14:46.312Z,25.63
2023-09-29T09:17:35.029Z,25.78
2023-09-29T09:20:29.271Z,25.95
2023-09-29T09:23:48.717Z,26.19
2023-09-29T09:26:20.563Z,26.43
2023-09-29T09:28:48.920Z,26.54
2023-09-29T09:32:17.063Z,26.69
2023-09-29T09:34:45.415Z,26.86
2023-09-29T09:38:00.635Z,27.01
2023-09-29T09:40:33.720Z,27.20
2023-09-29T09:43:28.052Z,27.36
2023-09-29T09:46:32.109Z,27.47
2023-09-29T09:49:11.904Z,27.64
2023-09-29T09:51:55.885Z,27.81
2023-09-29T09:54:42.250Z,28.03
2023-09-29T09:57:15.464Z,28.21
2023-09-29T10:00:27.405Z,28.34
2023-09-29T10:03:27.981Z,28.55
2023-09-29T10:06:06.828Z,28.68
2023-09-29T10:09:24.588Z,28.82
2023-09-29T10:12:32.937Z,28.92
2023-09-29T10:15:21.762Z,29.09
2023-09-29T10:18:24.642Z,29.27
2023-09-29T10:21:05.384Z,29.37
2023-09-29T10:23:52.063Z,29.40
2023-09-29T10:26:49.927Z,29.38
2023-09-29T10:29:51.414Z,29.42
2023-09-29T10:32:46.764Z,29.54
2023-09-29T10:35:40.014Z,29.56
2023-09-29T10:39:00.038Z,29.57
2023-09-29T10:41:43.614Z,29.34
2023-09-29T10:44:24.409Z,29.23
2023-09-29T10:47:23.183Z,29.13
2023-09-29T10:49:56.542Z,28.99
2023-09-29T10:52:31.071Z,28.86
2023-09-29T10:55:00.389Z,28.74
2023-09-29T10:57:34.337Z,28.71
2023-09-29T11:00:07.093Z,28.73
2023-09-29T11:02:38.631Z,28.70
2023-09-29T11:05:11.146Z,28.72
2023-09-29T11:07:52.302Z,28.66
2023-09-29T11:10:41.093Z,28.57
2023-09-29T11:13:18.721Z,28.54
2023-09-29T11:15:47.823Z,28.55
2023-09-29T11:18:42.990Z,28.62
2023-09-29T11:21:12.397Z,28.65
2023-09-29T11:23:45.800Z,28.61
2023-09-29T11:26:50.002Z,28.56
2023-09-29T11:29:25.315Z,28.59
2023-09-29T11:31:54.938Z,28.63
2023-09-29T11:34:24.145Z,28.65
2023-09-29T11:36:54.970Z,28.67
2023-09-29T11:39:25.979Z,28.73
2023-09-29T11:41:54.445Z,28.82
2023-09-29T11:44:29.472Z,28.94
2023-09-29T11:46:58.578Z,29.08
2023-09-29T11:49:27.244Z,29.30
2023-09-29T11:52:04.956Z,29.65
2023-09-29T11:54:33.319Z,29.97
2023-09-29T11:57:03.127Z,30.22
2023-09-29T11:59:44.742Z,30.45
2023-09-29T12:02:18.731Z,30.73
2023-09-29T12:04:49.964Z,30.98
2023-09-29T12:07:20.318Z,31.14
2023-09-29T12:09:48.575Z,31.40
2023-09-29T12:12:32.356Z,31.53
2023-09-29T12:15:01.232Z,31.68
2023-09-29T12:17:42.891Z,31.81
2023-09-29T12:20:15.171Z,31.92
2023-09-29T12:22:47.927Z,32.16
2023-09-29T12:25:16.621Z,32.31
2023-09-29T12:27:47.278Z,32.49
2023-09-29T12:30:22.933Z,32.67
2023-09-29T12:33:05.317Z,32.89
2023-09-29T12:35:45.491Z,33.09
2023-09-29T12:38:13.877Z,33.16
2023-09-29T12:40:43.965Z,33.15
2023-09-29T12:43:26.228Z,33.07
2023-09-29T12:46:00.254Z,32.95
2023-09-29T12:48:28.641Z,32.66
2023-09-29T12:50:57.408Z,32.42
2023-09-29T12:53:36.451Z,32.20
2023-09-29T12:56:05.614Z,32.06
2023-09-29T12:58:34.330Z,32.02
2023-09-29T13:01:11.880Z,32.00
2023-09-29T13:03:47.321Z,31.87
2023-09-29T13:06:16.288Z,31.81
2023-09-29T13:08:45.420Z,31.65
2023-09-29T13:11:17.668Z,31.47
2023-09-29T13:13:52.295Z,31.39
2023-09-29T13:16:20.877Z,31.35
2023-09-29T13:19:04.110Z,31.29
2023-09-29T13:21:35.312Z,31.23
2023-09-29T13:24:04.243Z,31.16
2023-09-29T13:26:37.392Z,31.04
2023-09-29T13:29:05.868Z,30.93
2023-09-29T13:31:54.617Z,30.92
2023-09-29T13:34:25.904Z,30.92
2023-09-29T13:37:01.254Z,31.03
2023-09-29T13:39:29.650Z,31.16
2023-09-29T13:41:58.866Z,31.34
2023-09-29T13:44:27.579Z,31.34
2023-09-29T13:47:12.180Z,31.41
2023-09-29T13:49:43.362Z,31.55
2023-09-29T13:52:25.016Z,31.45
2023-09-29T13:55:02.713Z,31.00
2023-09-29T13:57:33.764Z,30.55
2023-09-29T14:00:03.051Z,30.19
2023-09-29T14:03:03.021Z,29.91
2023-09-29T14:05:37.925Z,29.65
2023-09-29T14:08:51.214Z,29.38
2023-09-29T14:11:44.320Z,29.01
2023-09-29T14:14:13.091Z,28.72
2023-09-29T14:16:53.022Z,28.41
2023-09-29T14:19:21.550Z,28.15
2023-09-29T14:22:10.764Z,27.98
2023-09-29T14:24:54.919Z,27.76
2023-09-29T14:27:39.279Z,27.56
2023-09-29T14:30:11.031Z,27.39
2023-09-29T14:32:49.452Z,27.27
2023-09-29T14:35:46.372Z,27.20
2023-09-29T14:38:21.959Z,27.04
2023-09-29T14:40:57.098Z,26.93
2023-09-29T14:43:58.155Z,26.84
2023-09-29T14:46:29.116Z,26.73
2023-09-29T14:49:08.752Z,26.67
2023-09-29T14:51:42.851Z,26.60
2023-09-29T14:54:15.687Z,26.45
2023-09-29T14:56:49.539Z,26.34
2023-09-29T14:59:20.539Z,26.21
2023-09-29T15:01:54.473Z,26.10
2023-09-29T15:04:29.667Z,26.00
2023-09-29T15:07:02.084Z,25.87
2023-09-29T15:10:00.432Z,25.77
2023-09-29T15:12:51.130Z,25.70
2023-09-29T15:15:43.111Z,25.59
2023-09-29T15:18:40.770Z,25.46
2023-09-29T15:21:12.325Z,25.34
2023-09-29T15:24:01.765Z,25.25
2023-09-29T15:27:01.375Z,25.12
2023-09-29T15:29:53.844Z,25.00
2023-09-29T15:32:29.986Z,24.90
2023-09-29T15:35:10.006Z,24.82
2023-09-29T15:37:44.259Z,24.70
2023-09-29T15:40:25.348Z,24.57
2023-09-29T15:43:45.374Z,24.47
2023-09-29T15:46:31.861Z,24.32
2023-09-29T15:49:51.031Z,24.23
2023-09-29T15:52:39.204Z,24.13
2023-09-29T15:55:11.712Z,24.03
2023-09-29T15:57:50.814Z,23.94
2023-09-29T16:00:44.769Z,23.84
2023-09-29T16:03:38.358Z,23.72
2023-09-29T16:06:18.208Z,23.63
2023-09-29T16:08:55.786Z,23.52
2023-09-29T16:12:44.685Z,23.40
2023-09-29T16:16:33.922Z,23.27
2023-09-29T16:19:14.320Z,23.13
2023-09-29T16:22:23.702Z,23.05
2023-09-29T16:26:13.056Z,22.96
2023-09-29T16:29:14.921Z,22.87
2023-09-29T16:32:37.018Z,22.78
2023-09-29T16:36:14.571Z,22.65
2023-09-29T16:39:09.407Z,22.50
2023-09-29T16:42:30.828Z,22.33
2023-09-29T16:45:56.109Z,22.17
2023-09-29T16:49:07.886Z,22.05
2023-09-29T16:52:27.555Z,21.94
2023-09-29T16:55:40.720Z,21.79
2023-09-29T16:59:00.948Z,21.58
2023-09-29T17:02:49.365Z,21.44
2023-09-29T17:06:32.218Z,21.27
2023-09-29T17:10:00.822Z,21.11
2023-09-29T18:17:29.495Z,19.86
2023-09-29T18:21:04.288Z,19.80
2023-09-29T18:24:54.802Z,19.70
2023-09-29T18:27:59.479Z,19.62
2023-09-29T18:31:49.993Z,19.56
2023-09-29T18:35:20.857Z,19.46
2023-09-29T18:38:42.009Z,19.40
2023-09-29T18:42:08.554Z,19.32
2023-09-29T18:45:58.314Z,19.25
2023-09-29T18:49:36.533Z,19.18
2023-09-29T19:23:13.981Z,18.85
2023-09-29T19:27:04.577Z,18.77
2023-09-29T19:30:55.265Z,18.71
2023-09-29T19:34:43.701Z,18.69
2023-09-29T19:38:26.875Z,18.65
2023-09-29T19:57:27.590Z,18.62
2023-09-29T20:01:18.127Z,18.57
2023-09-29T20:05:01.235Z,18.58
2023-09-29T20:08:52.060Z,18.58
2023-09-29T20:27:39.131Z,18.49
2023-09-29T20:31:29.311Z,18.46
2023-09-29T20:35:02.257Z,18.47
2023-09-29T20:38:33.367Z,18.46
2023-09-29T20:42:23.305Z,18.47
2023-09-29T20:46:13.864Z,18.49
2023-09-29T21:09:19.059Z,18.23
2023-09-29T21:13:08.553Z,18.13
2023-09-29T21:17:04.085Z,18.09
2023-09-29T21:32:14.496Z,17.99
2023-09-29T21:35:58.348Z,17.92
2023-09-29T21:39:49.852Z,17.91
2023-09-29T21:43:39.283Z,17.90
2023-09-29T21:47:29.212Z,17.87
2023-09-29T21:51:20.231Z,17.83
2023-09-29T22:14:26.127Z,17.83
2023-09-29T22:18:17.972Z,17.79
2023-09-29T22:22:08.197Z,17.79
2023-09-29T22:25:58.583Z,17.76
2023-09-29T22:29:49.485Z,17.74
2023-09-29T22:49:17.276Z,17.70
2023-09-29T22:53:05.226Z,17.66
2023-09-29T22:56:54.699Z,17.66
2023-09-29T23:00:44.856Z,17.64
2023-09-29T23:16:27.523Z,17.62
2023-09-29T23:20:19.109Z,17.58
2023-09-29T23:24:10.351Z,17.63
2023-09-29T23:27:52.653Z,17.68
2023-09-29T23:43:14.983Z,17.70
2023-09-29T23:47:05.030Z,17.65
2023-09-29T23:50:48.448Z,17.62
2023-09-29T23:54:38.790Z,17.62
2023-09-29T23:58:28.979Z,17.62
